createdAt,value
2018-07-04T00:00:40.811Z,3.15
2018-07-04T00:03:20.564Z,2.90
2018-07-04T00:06:00.421Z,3.47
2018-07-04T00:08:40.237Z,3.10
2018-07-04T00:11:20.062Z,3.00
2018-07-04T00:14:00.165Z,3.37
2018-07-04T00:16:40.315Z,3.10
2018-07-04T00:19:19.912Z,3.35
2018-07-04T00:21:59.942Z,3.22
2018-07-04T00:24:39.784Z,3.30
2018-07-04T00:27:19.608Z,2.87
2018-07-04T00:29:59.460Z,3.30
2018-07-04T00:32:39.403Z,3.35
2018-07-04T00:35:19.113Z,3.20
2018-07-04T00:37:58.761Z,3.73
2018-07-04T00:40:38.651Z,3.17
2018-07-04T00:43:18.535Z,3.42
2018-07-04T00:45:58.137Z,3.30
2018-07-04T00:48:37.904Z,3.10
2018-07-04T00:51:17.939Z,3.20
2018-07-04T00:53:57.741Z,3.20
2018-07-04T00:56:37.832Z,3.30
2018-07-04T00:59:17.963Z,3.20
2018-07-04T01:01:57.508Z,3.15
2018-07-04T01:04:37.237Z,3.60
2018-07-04T01:07:16.796Z,3.30
2018-07-04T01:09:56.547Z,3.08
2018-07-04T01:12:36.143Z,3.30
2018-07-04T01:15:15.808Z,3.12
2018-07-04T01:17:55.401Z,3.22
2018-07-04T01:20:40.636Z,3.30
2018-07-04T01:23:20.290Z,3.15
2018-07-04T01:25:59.838Z,3.20
2018-07-04T01:28:45.375Z,3.30
2018-07-04T01:31:25.220Z,3.30
2018-07-04T01:34:04.852Z,3.30
2018-07-04T01:36:44.949Z,3.33
2018-07-04T01:39:24.829Z,3.50
2018-07-04T01:42:04.409Z,3.77
2018-07-04T01:44:44.188Z,3.43
2018-07-04T01:47:23.982Z,3.00
2018-07-04T01:50:04.166Z,3.10
2018-07-04T01:52:43.886Z,3.37
2018-07-04T01:55:23.494Z,3.40
2018-07-04T01:58:03.309Z,2.92
2018-07-04T02:00:43.072Z,3.40
2018-07-04T02:03:22.845Z,3.10
2018-07-04T02:06:02.890Z,3.80
2018-07-04T02:08:42.919Z,3.60
2018-07-04T02:11:22.873Z,2.77
2018-07-04T02:14:03.009Z,3.40
2018-07-04T02:16:42.703Z,3.50
2018-07-04T02:19:22.250Z,3.60
2018-07-04T02:22:02.410Z,3.40
2018-07-04T02:24:42.226Z,3.58
2018-07-04T02:27:22.310Z,3.20
2018-07-04T02:30:02.770Z,3.10
2018-07-04T02:32:42.441Z,2.98
2018-07-04T02:35:22.561Z,3.30
2018-07-04T02:38:02.393Z,3.08
2018-07-04T02:40:42.674Z,3.08
2018-07-04T02:43:22.935Z,3.12
2018-07-04T02:46:02.969Z,3.58
2018-07-04T02:48:42.618Z,3.40
2018-07-04T02:51:22.377Z,3.40
2018-07-04T02:54:02.228Z,3.30
2018-07-04T02:56:42.069Z,3.65
2018-07-04T02:59:22.646Z,3.50
2018-07-04T03:02:02.380Z,3.40
2018-07-04T03:04:42.118Z,3.37
2018-07-04T03:07:21.873Z,3.42
2018-07-04T03:10:01.421Z,3.20
2018-07-04T03:12:41.168Z,3.45
2018-07-04T03:15:21.117Z,3.70
2018-07-04T03:18:00.925Z,3.55
2018-07-04T03:20:40.845Z,3.67
2018-07-04T03:23:20.591Z,3.40
2018-07-04T03:26:00.370Z,3.10
2018-07-04T03:28:40.170Z,3.20
2018-07-04T03:31:19.769Z,3.60
2018-07-04T03:33:59.547Z,3.37
2018-07-04T03:36:39.387Z,3.80
2018-07-04T03:39:19.277Z,3.65
2018-07-04T03:41:59.489Z,3.00
2018-07-04T03:44:39.290Z,3.10
2018-07-04T03:47:19.055Z,3.30
2018-07-04T03:49:58.797Z,3.40
2018-07-04T03:52:38.483Z,3.40
2018-07-04T03:55:18.625Z,3.20
2018-07-04T03:57:58.350Z,3.30
2018-07-04T04:00:38.054Z,3.15
2018-07-04T04:03:17.963Z,3.40
2018-07-04T04:05:57.712Z,3.20
2018-07-04T04:08:37.846Z,3.25
2018-07-04T04:11:17.822Z,3.30
2018-07-04T04:13:57.740Z,4.20
2018-07-04T04:17:41.347Z,3.70
2018-07-04T04:20:20.954Z,4.03
2018-07-04T04:23:00.638Z,3.40
2018-07-04T04:25:40.753Z,4.03
2018-07-04T04:28:20.481Z,3.60
2018-07-04T04:31:00.167Z,3.80
2018-07-04T04:33:40.217Z,3.63
2018-07-04T04:36:20.356Z,3.35
2018-07-04T04:39:00.630Z,3.40
2018-07-04T04:41:40.971Z,3.70
2018-07-04T04:44:20.950Z,6.20
2018-07-04T04:47:00.670Z,4.70
2018-07-04T04:49:40.827Z,4.58
2018-07-04T04:52:20.641Z,3.75
2018-07-04T04:55:00.506Z,3.10
2018-07-04T04:57:40.880Z,3.80
2018-07-04T05:00:20.445Z,3.80
2018-07-04T05:03:00.041Z,3.97
2018-07-04T05:05:39.579Z,3.72
2018-07-04T05:08:21.304Z,4.37
2018-07-04T05:11:01.550Z,4.03
2018-07-04T05:13:41.493Z,4.92
2018-07-04T05:16:20.980Z,3.70
2018-07-04T05:19:01.605Z,4.60
2018-07-04T05:24:22.854Z,3.60
2018-07-04T05:27:02.649Z,4.28
2018-07-04T05:29:42.644Z,4.30
2018-07-04T05:32:22.747Z,4.90
2018-07-04T05:35:02.561Z,5.10
2018-07-04T05:37:42.366Z,4.78
2018-07-04T05:40:22.421Z,4.75
2018-07-04T05:43:02.105Z,4.50
2018-07-04T05:45:41.822Z,6.57
2018-07-04T05:48:22.188Z,4.03
2018-07-04T05:51:01.913Z,3.70
2018-07-04T05:53:41.917Z,3.80
2018-07-04T05:56:21.530Z,3.70
2018-07-04T05:59:01.397Z,3.92
2018-07-04T06:01:41.367Z,3.52
2018-07-04T06:04:21.254Z,4.37
2018-07-04T06:07:01.641Z,4.65
2018-07-04T06:09:41.390Z,3.77
2018-07-04T06:12:21.457Z,4.50
2018-07-04T06:15:01.204Z,4.17
2018-07-04T06:17:41.475Z,3.80
2018-07-04T06:20:21.604Z,4.00
2018-07-04T06:23:01.433Z,4.22
2018-07-04T06:25:41.091Z,4.40
2018-07-04T06:28:21.237Z,4.40
2018-07-04T06:31:00.873Z,3.60
2018-07-04T06:33:40.621Z,3.30
2018-07-04T06:36:20.367Z,3.80
2018-07-04T06:38:54.185Z,4.50
2018-07-04T06:41:21.617Z,3.42
2018-07-04T06:43:49.321Z,2.90
2018-07-04T06:46:17.068Z,3.80
2018-07-04T06:48:44.404Z,2.90
2018-07-04T06:51:11.890Z,3.10
2018-07-04T06:53:39.141Z,3.00
2018-07-04T06:56:06.902Z,3.20
2018-07-04T06:58:34.211Z,4.30
2018-07-04T07:01:01.514Z,4.00
2018-07-04T07:03:34.913Z,7.20
2018-07-04T07:06:14.648Z,3.75
2018-07-04T07:08:54.789Z,3.17
2018-07-04T07:11:35.016Z,3.40
2018-07-04T07:14:14.620Z,3.22
2018-07-04T07:16:54.159Z,3.35
2018-07-04T07:19:33.981Z,3.03
2018-07-04T07:22:13.469Z,3.77
2018-07-04T07:24:53.152Z,3.80
2018-07-04T07:27:32.861Z,3.60
2018-07-04T07:30:12.522Z,3.00
2018-07-04T07:32:52.355Z,3.00
2018-07-04T07:35:32.049Z,3.20
2018-07-04T07:38:11.725Z,2.80
2018-07-04T07:40:51.353Z,2.70
2018-07-04T07:43:31.506Z,3.00
2018-07-04T07:46:11.241Z,3.10
2018-07-04T07:48:51.371Z,2.47
2018-07-04T07:51:31.275Z,3.42
2018-07-04T07:54:10.852Z,2.90
2018-07-04T07:56:50.977Z,3.35
2018-07-04T07:59:31.010Z,3.10
2018-07-04T08:02:10.845Z,2.40
2018-07-04T08:04:50.679Z,3.00
2018-07-04T08:07:30.423Z,2.70
2018-07-04T08:10:10.294Z,2.50
2018-07-04T08:12:50.149Z,2.52
2018-07-04T08:15:29.795Z,2.40
2018-07-04T08:18:09.676Z,2.37
2018-07-04T08:20:49.330Z,2.10
2018-07-04T08:23:29.307Z,2.35
2018-07-04T08:26:08.974Z,2.67
2018-07-04T08:28:48.521Z,2.67
2018-07-04T08:31:28.665Z,2.00
2018-07-04T08:34:08.441Z,2.70
2018-07-04T08:36:48.137Z,2.17
2018-07-04T08:39:27.845Z,1.95
2018-07-04T08:42:07.623Z,2.30
2018-07-04T08:44:47.636Z,2.10
2018-07-04T08:47:27.086Z,2.10
2018-07-04T08:50:06.860Z,2.00
2018-07-04T08:52:47.053Z,2.00
2018-07-04T08:55:26.717Z,2.30
2018-07-04T08:58:06.405Z,2.50
2018-07-04T09:00:46.480Z,2.20
2018-07-04T09:03:26.113Z,2.00
2018-07-04T09:06:05.837Z,1.98
2018-07-04T09:08:45.788Z,2.10
2018-07-04T09:11:25.479Z,2.07
2018-07-04T09:14:05.197Z,2.50
2018-07-04T09:16:45.110Z,2.37
2018-07-04T09:19:24.849Z,2.10
2018-07-04T09:22:04.887Z,1.80
2018-07-04T09:24:44.597Z,1.85
2018-07-04T09:27:24.343Z,2.00
2018-07-04T09:30:04.199Z,1.70
2018-07-04T09:32:44.087Z,2.20
2018-07-04T09:35:23.758Z,1.80
2018-07-04T09:38:03.546Z,2.20
2018-07-04T09:40:43.230Z,1.50
2018-07-04T09:43:23.003Z,1.80
2018-07-04T09:46:02.470Z,1.42
2018-07-04T09:48:42.191Z,1.60
2018-07-04T09:51:21.939Z,1.98
2018-07-04T09:54:01.627Z,1.60
2018-07-04T09:56:41.221Z,1.90
2018-07-04T09:59:21.224Z,1.50
2018-07-04T10:02:01.254Z,1.50
2018-07-04T10:04:40.898Z,1.62
2018-07-04T10:07:20.720Z,1.60
2018-07-04T10:10:00.744Z,1.70
2018-07-04T10:12:40.389Z,1.50
2018-07-04T10:15:20.101Z,1.60
2018-07-04T10:18:00.024Z,1.90
2018-07-04T10:20:39.665Z,1.92
2018-07-04T10:23:19.924Z,1.50
2018-07-04T10:25:59.790Z,1.70
2018-07-04T10:28:39.330Z,1.50
2018-07-04T10:31:19.481Z,1.60
2018-07-04T10:33:59.242Z,1.70
2018-07-04T10:36:38.627Z,1.60
2018-07-04T10:39:18.521Z,1.60
2018-07-04T10:41:58.158Z,1.40
2018-07-04T10:44:38.094Z,1.32
2018-07-04T10:47:17.954Z,1.60
2018-07-04T10:49:58.022Z,1.40
2018-07-04T10:52:37.727Z,1.40
2018-07-04T10:55:17.672Z,1.47
2018-07-04T10:57:57.427Z,1.77
2018-07-04T11:00:37.428Z,1.80
2018-07-04T11:03:17.737Z,1.65
2018-07-04T11:05:57.515Z,1.55
2018-07-04T11:08:37.600Z,1.62
2018-07-04T11:11:17.285Z,1.45
2018-07-04T11:13:57.168Z,1.57
2018-07-04T11:16:36.762Z,1.43
2018-07-04T11:19:16.563Z,1.57
2018-07-04T11:21:56.627Z,1.65
2018-07-04T11:24:36.316Z,1.47
2018-07-04T11:27:16.313Z,1.60
2018-07-04T11:29:56.202Z,1.52
2018-07-04T11:32:36.376Z,1.50
2018-07-04T11:35:16.185Z,1.60
2018-07-04T11:37:56.845Z,1.50
2018-07-04T11:40:37.398Z,1.40
2018-07-04T11:43:17.226Z,1.22
2018-07-04T11:45:54.351Z,1.47
2018-07-04T11:48:21.830Z,1.57
2018-07-04T11:50:50.117Z,1.42
2018-07-04T11:53:19.024Z,1.50
2018-07-04T11:55:47.250Z,1.32
2018-07-04T11:58:17.403Z,2.50
2018-07-04T12:00:45.175Z,1.50
2018-07-04T12:03:19.731Z,1.67
2018-07-04T12:05:53.511Z,1.80
2018-07-04T12:08:28.332Z,1.60
2018-07-04T12:10:56.240Z,1.80
2018-07-04T12:13:25.520Z,1.77
2018-07-04T12:15:54.031Z,1.50
2018-07-04T12:18:21.456Z,1.57
2018-07-04T12:20:49.041Z,1.47
2018-07-04T12:23:16.566Z,1.47
2018-07-04T12:25:45.055Z,1.50
2018-07-04T12:28:12.991Z,1.50
2018-07-04T12:30:40.713Z,1.60
2018-07-04T12:33:07.969Z,1.62
2018-07-04T12:35:35.315Z,1.60
2018-07-04T12:38:03.526Z,1.30
2018-07-04T12:40:31.047Z,1.75
2018-07-04T12:42:58.992Z,1.40
2018-07-04T12:45:26.917Z,1.60
2018-07-04T12:47:54.187Z,1.40
2018-07-04T12:50:26.933Z,1.25
2018-07-04T12:52:54.554Z,1.70
2018-07-04T12:55:33.368Z,1.40
2018-07-04T12:58:13.517Z,1.70
2018-07-04T13:00:54.152Z,1.60
2018-07-04T13:03:34.259Z,1.50
2018-07-04T13:06:14.000Z,1.30
2018-07-04T13:08:53.855Z,1.30
2018-07-04T13:11:34.117Z,1.30
2018-07-04T13:14:14.151Z,1.70
2018-07-04T13:16:54.416Z,1.37
2018-07-04T13:19:34.730Z,1.80
2018-07-04T13:22:15.050Z,2.47
2018-07-04T13:24:54.688Z,1.40
2018-07-04T13:27:34.452Z,1.50
2018-07-04T13:30:14.362Z,1.65
2018-07-04T13:32:54.145Z,1.80
2018-07-04T13:35:35.036Z,1.60
2018-07-04T13:38:14.739Z,1.90
2018-07-04T13:40:54.620Z,1.52
2018-07-04T13:43:34.453Z,1.80
2018-07-04T13:46:13.993Z,1.60
2018-07-04T13:48:53.763Z,1.30
2018-07-04T13:51:33.686Z,1.40
2018-07-04T13:54:13.585Z,1.10
2018-07-04T13:56:53.214Z,1.20
2018-07-04T13:59:33.830Z,1.20
2018-07-04T14:02:13.634Z,1.20
2018-07-04T14:04:53.599Z,1.30
2018-07-04T14:07:33.341Z,1.37
2018-07-04T14:10:13.172Z,1.00
2018-07-04T14:12:53.113Z,1.17
2018-07-04T14:15:32.846Z,1.20
2018-07-04T14:18:12.716Z,1.15
2018-07-04T14:20:52.871Z,1.35
2018-07-04T14:23:32.772Z,1.20
2018-07-04T14:26:12.527Z,1.17
2018-07-04T14:28:52.200Z,1.50
2018-07-04T14:31:32.596Z,1.50
2018-07-04T14:34:12.652Z,1.32
2018-07-04T14:36:52.777Z,1.20
2018-07-04T14:39:33.293Z,1.45
2018-07-04T14:42:14.027Z,1.20
2018-07-04T14:44:53.701Z,1.40
2018-07-04T14:47:33.678Z,1.10
2018-07-04T14:50:14.116Z,1.17
2018-07-04T14:52:54.693Z,1.30
2018-07-04T14:55:34.494Z,1.20
2018-07-04T14:58:14.993Z,1.00
2018-07-04T15:00:54.669Z,1.10
2018-07-04T15:03:34.800Z,1.30
2018-07-04T15:06:14.571Z,7.37
2018-07-04T15:08:55.258Z,1.60
2018-07-04T15:11:35.078Z,1.35
2018-07-04T15:14:15.208Z,1.35
2018-07-04T15:16:54.956Z,1.20
2018-07-04T15:19:35.064Z,1.10
2018-07-04T15:22:15.008Z,1.70
2018-07-04T15:24:54.903Z,1.20
2018-07-04T15:27:35.007Z,2.00
2018-07-04T15:30:15.020Z,1.10
2018-07-04T15:32:55.414Z,1.12
2018-07-04T15:35:35.580Z,1.37
2018-07-04T15:38:15.453Z,1.20
2018-07-04T15:40:55.322Z,1.10
2018-07-04T15:43:35.683Z,1.40
2018-07-04T15:46:15.366Z,1.40
2018-07-04T15:48:55.274Z,1.00
2018-07-04T15:51:34.897Z,1.50
2018-07-04T15:54:14.903Z,1.40
2018-07-04T15:56:54.651Z,1.40
2018-07-04T15:59:34.252Z,1.20
2018-07-04T16:02:14.042Z,1.27
2018-07-04T16:04:53.903Z,1.47
2018-07-04T16:07:33.700Z,1.30
2018-07-04T16:10:13.502Z,1.10
2018-07-04T16:12:53.018Z,1.12
2018-07-04T16:15:32.810Z,1.20
2018-07-04T16:18:13.658Z,1.00
2018-07-04T16:20:57.659Z,1.17
2018-07-04T16:23:38.384Z,1.20
2018-07-04T16:26:20.571Z,1.10
2018-07-04T16:29:04.571Z,1.30
2018-07-04T16:31:46.170Z,1.15
2018-07-04T16:34:27.172Z,1.40
2018-07-04T16:37:08.639Z,1.50
2018-07-04T16:39:50.115Z,1.10
2018-07-04T16:42:30.800Z,1.20
2018-07-04T16:45:11.746Z,1.30
2018-07-04T16:47:51.697Z,1.40
2018-07-04T16:50:31.648Z,2.85
2018-07-04T16:53:11.497Z,1.40
2018-07-04T16:55:51.566Z,1.70
2018-07-04T16:58:31.334Z,1.32
2018-07-04T17:01:11.165Z,1.20
2018-07-04T17:03:51.464Z,1.30
2018-07-04T17:06:31.169Z,1.50
2018-07-04T17:09:11.145Z,1.70
2018-07-04T17:11:51.167Z,1.50
2018-07-04T17:14:31.301Z,1.60
2018-07-04T17:17:13.051Z,1.20
2018-07-04T17:19:54.995Z,1.10
2018-07-04T17:22:34.795Z,1.20
2018-07-04T17:25:14.702Z,1.30
2018-07-04T17:27:55.448Z,1.30
2018-07-04T17:30:37.606Z,1.30
2018-07-04T17:33:20.016Z,1.20
2018-07-04T17:36:00.400Z,1.20
2018-07-04T17:38:40.791Z,1.20
2018-07-04T17:41:21.560Z,1.37
2018-07-04T17:44:03.495Z,1.00
2018-07-04T17:46:44.664Z,1.55
2018-07-04T17:49:25.257Z,1.30
2018-07-04T17:52:07.606Z,1.30
2018-07-04T17:54:48.545Z,1.20
2018-07-04T17:57:31.183Z,1.60
2018-07-04T18:00:13.635Z,1.85
2018-07-04T18:02:54.936Z,1.50
2018-07-04T18:05:36.185Z,1.57
2018-07-04T18:08:17.753Z,1.60
2018-07-04T18:10:58.340Z,1.40
2018-07-04T18:13:40.282Z,1.75
2018-07-04T18:16:23.306Z,1.90
2018-07-04T18:19:04.194Z,1.92
2018-07-04T18:21:44.531Z,2.40
2018-07-04T18:24:29.270Z,2.60
2018-07-04T18:27:09.390Z,2.90
2018-07-04T18:29:51.815Z,3.15
2018-07-04T18:32:33.302Z,3.00
2018-07-04T18:35:13.864Z,3.15
2018-07-04T18:37:53.850Z,3.77
2018-07-04T18:40:33.829Z,3.80
2018-07-04T18:43:13.663Z,3.43
2018-07-04T18:45:54.517Z,3.80
2018-07-04T18:48:35.771Z,3.80
2018-07-04T18:51:17.426Z,3.80
2018-07-04T18:53:58.789Z,4.07
2018-07-04T18:56:40.403Z,3.70
2018-07-04T18:59:22.154Z,3.70
2018-07-04T19:02:04.172Z,3.60
2018-07-04T19:04:45.189Z,3.20
2018-07-04T19:07:26.202Z,3.50
2018-07-04T19:10:07.516Z,3.60
2018-07-04T19:12:48.767Z,3.70
2018-07-04T19:15:30.393Z,3.50
2018-07-04T19:18:11.656Z,4.30
2018-07-04T19:20:52.155Z,3.57
2018-07-04T19:23:32.805Z,3.80
2018-07-04T19:26:13.488Z,3.10
2018-07-04T19:28:53.436Z,2.87
2018-07-04T19:31:34.213Z,3.35
2018-07-04T19:34:14.324Z,3.10
2018-07-04T19:36:54.992Z,2.90
2018-07-04T19:39:36.040Z,2.75
2018-07-04T19:42:16.993Z,3.00
2018-07-04T19:44:57.428Z,2.50
2018-07-04T19:47:38.167Z,2.45
2018-07-04T19:50:18.838Z,2.42
2018-07-04T19:52:59.664Z,2.40
2018-07-04T19:55:41.215Z,2.40
2018-07-04T19:58:22.601Z,2.50
2018-07-04T20:01:03.822Z,2.70
2018-07-04T20:03:43.663Z,3.00
2018-07-04T20:06:23.795Z,2.67
2018-07-04T20:09:04.786Z,2.58
2018-07-04T20:11:44.600Z,2.50
2018-07-04T20:14:26.844Z,2.67
2018-07-04T20:17:06.862Z,2.80
2018-07-04T20:19:47.307Z,2.40
2018-07-04T20:22:28.801Z,2.50
2018-07-04T20:25:10.273Z,2.50
2018-07-04T20:27:50.126Z,2.80
2018-07-04T20:30:29.781Z,3.57
2018-07-04T20:33:10.190Z,3.30
2018-07-04T20:35:50.097Z,2.98
2018-07-04T20:38:30.048Z,2.50
2018-07-04T20:41:10.185Z,2.60
2018-07-04T20:43:50.124Z,2.40
2018-07-04T20:46:29.733Z,2.45
2018-07-04T20:49:09.901Z,2.50
2018-07-04T20:51:49.793Z,2.50
2018-07-04T20:54:29.862Z,2.50
2018-07-04T20:57:09.703Z,2.40
2018-07-04T20:59:49.425Z,2.53
2018-07-04T21:02:29.270Z,2.70
2018-07-04T21:05:09.507Z,2.60
2018-07-04T21:07:49.202Z,2.12
2018-07-04T21:10:28.808Z,2.27
2018-07-04T21:13:08.776Z,2.60
2018-07-04T21:15:51.107Z,2.40
2018-07-04T21:18:30.870Z,2.50
2018-07-04T21:21:10.547Z,2.55
2018-07-04T21:23:50.295Z,2.40
2018-07-04T21:26:30.431Z,2.75
2018-07-04T21:29:10.101Z,3.20
2018-07-04T21:31:50.525Z,2.63
2018-07-04T21:34:30.302Z,2.60
2018-07-04T21:37:11.693Z,2.30
2018-07-04T21:39:52.715Z,2.10
2018-07-04T21:42:32.519Z,2.70
2018-07-04T21:45:12.261Z,2.47
2018-07-04T21:47:52.301Z,2.37
2018-07-04T21:50:32.477Z,2.67
2018-07-04T21:53:12.476Z,2.30
2018-07-04T21:55:53.835Z,2.60
2018-07-04T21:58:33.691Z,2.60
2018-07-04T22:01:13.859Z,2.60
2018-07-04T22:03:54.350Z,2.60
2018-07-04T22:06:34.821Z,2.62
2018-07-04T22:09:15.208Z,2.45
2018-07-04T22:11:55.677Z,2.40
2018-07-04T22:14:36.574Z,2.80
2018-07-04T22:17:17.310Z,2.70
2018-07-04T22:19:57.290Z,2.77
2018-07-04T22:22:37.751Z,2.30
2018-07-04T22:25:18.172Z,2.33
2018-07-04T22:27:58.478Z,2.20
2018-07-04T22:30:38.993Z,2.30
2018-07-04T22:33:19.151Z,2.50
2018-07-04T22:35:59.310Z,2.30
2018-07-04T22:38:39.536Z,2.30
2018-07-04T22:41:19.968Z,2.27
2018-07-04T22:44:00.522Z,2.22
2018-07-04T22:46:41.057Z,2.20
2018-07-04T22:49:21.476Z,2.45
2018-07-04T22:52:01.745Z,2.50
2018-07-04T22:54:42.516Z,2.30
2018-07-04T22:57:22.616Z,2.30
2018-07-04T23:00:03.199Z,2.27
2018-07-04T23:02:43.256Z,2.30
2018-07-04T23:05:23.038Z,2.20
2018-07-04T23:08:03.078Z,2.40
2018-07-04T23:10:42.745Z,2.30
2018-07-04T23:13:22.549Z,2.30
2018-07-04T23:16:02.763Z,2.35
2018-07-04T23:18:42.967Z,2.10
2018-07-04T23:21:25.608Z,2.40
2018-07-04T23:24:09.796Z,2.40
2018-07-04T23:26:51.663Z,2.40
2018-07-04T23:29:32.876Z,2.65
2018-07-04T23:32:12.753Z,2.45
2018-07-04T23:34:52.555Z,2.47
2018-07-04T23:37:34.330Z,2.58
2018-07-04T23:40:17.762Z,2.42
2018-07-04T23:42:59.419Z,2.20
2018-07-04T23:45:39.332Z,2.40
2018-07-04T23:48:19.085Z,2.40
2018-07-04T23:50:58.795Z,2.70
2018-07-04T23:53:39.037Z,2.50
2018-07-04T23:56:18.750Z,2.40
2018-07-04T23:58:58.554Z,2.85
